createdAt,value
2023-01-30T00:00:47.034Z,0.00
2023-01-30T00:01:47.124Z,0.00
2023-01-30T00:02:47.079Z,0.00
2023-01-30T00:03:47.165Z,0.00
2023-01-30T00:04:47.155Z,0.00
2023-01-30T00:05:47.147Z,0.00
2023-01-30T00:06:47.166Z,0.00
2023-01-30T00:07:47.199Z,0.00
2023-01-30T00:08:47.211Z,0.00
2023-01-30T00:09:47.235Z,0.00
2023-01-30T00:10:47.254Z,0.00
2023-01-30T00:11:47.280Z,0.00
2023-01-30T00:12:47.299Z,0.00
2023-01-30T00:13:47.323Z,0.00
2023-01-30T00:14:47.343Z,0.00
2023-01-30T00:15:47.370Z,0.00
2023-01-30T00:16:47.417Z,0.00
2023-01-30T00:17:47.411Z,0.00
2023-01-30T00:18:47.434Z,0.00
2023-01-30T00:19:47.457Z,0.00
2023-01-30T00:20:47.479Z,0.00
2023-01-30T00:21:47.502Z,0.00
2023-01-30T00:23:00.177Z,0.00
2023-01-30T00:23:47.548Z,0.00
2023-01-30T00:24:47.716Z,0.00
2023-01-30T00:25:47.853Z,0.00
2023-01-30T00:26:47.649Z,0.00
2023-01-30T00:27:47.636Z,0.00
2023-01-30T00:28:47.658Z,0.00
2023-01-30T00:29:57.727Z,0.00
2023-01-30T00:30:47.735Z,0.00
2023-01-30T00:31:47.759Z,0.00
2023-01-30T00:32:47.748Z,0.00
2023-01-30T00:33:47.777Z,0.00
2023-01-30T00:34:47.792Z,0.00
2023-01-30T00:35:47.820Z,0.00
2023-01-30T00:36:56.001Z,0.00
2023-01-30T00:37:47.861Z,0.00
2023-01-30T00:38:47.879Z,0.00
2023-01-30T00:39:47.908Z,0.00
2023-01-30T00:40:47.934Z,0.00
2023-01-30T00:41:47.957Z,0.00
2023-01-30T00:42:47.970Z,0.00
2023-01-30T00:43:47.997Z,0.00
2023-01-30T00:44:48.020Z,0.00
2023-01-30T00:45:48.063Z,0.00
2023-01-30T00:46:48.060Z,0.00
2023-01-30T00:47:48.086Z,0.00
2023-01-30T00:48:48.115Z,0.00
2023-01-30T00:49:48.131Z,0.00
2023-01-30T00:50:48.250Z,0.00
2023-01-30T00:51:48.178Z,0.00
2023-01-30T00:52:48.198Z,0.00
2023-01-30T00:53:48.221Z,0.00
2023-01-30T00:54:48.282Z,0.00
2023-01-30T00:55:48.268Z,0.00
2023-01-30T00:56:48.291Z,0.00
2023-01-30T00:57:48.312Z,0.00
2023-01-30T00:58:48.332Z,0.00
2023-01-30T00:59:49.708Z,0.00
2023-01-30T01:00:48.380Z,0.00
2023-01-30T01:01:48.478Z,0.00
2023-01-30T01:02:48.448Z,0.00
2023-01-30T01:03:48.447Z,0.00
2023-01-30T01:04:48.469Z,0.00
2023-01-30T01:05:48.494Z,0.00
2023-01-30T01:06:48.512Z,0.00
2023-01-30T01:07:48.539Z,0.00
2023-01-30T01:08:48.564Z,0.00
2023-01-30T01:09:48.585Z,0.00
2023-01-30T01:10:48.604Z,0.00
2023-01-30T01:11:48.629Z,0.00
2023-01-30T01:12:48.650Z,0.00
2023-01-30T01:13:48.674Z,0.00
2023-01-30T01:14:48.697Z,0.00
2023-01-30T01:15:48.718Z,0.00
2023-01-30T01:16:48.743Z,0.00
2023-01-30T01:17:48.767Z,0.00
2023-01-30T01:18:48.786Z,0.00
2023-01-30T01:19:48.809Z,0.00
2023-01-30T01:20:48.832Z,0.00
2023-01-30T01:21:48.857Z,0.00
2023-01-30T01:22:48.876Z,0.00
2023-01-30T01:23:48.899Z,0.00
2023-01-30T01:24:48.923Z,0.00
2023-01-30T01:25:48.946Z,0.00
2023-01-30T01:26:49.026Z,0.00
2023-01-30T01:27:48.990Z,0.00
2023-01-30T01:28:49.012Z,0.00
2023-01-30T01:29:49.036Z,0.00
2023-01-30T01:30:49.096Z,0.00
2023-01-30T01:31:49.107Z,0.00
2023-01-30T01:32:49.103Z,0.00
2023-01-30T01:33:49.126Z,0.00
2023-01-30T01:34:49.147Z,0.00
2023-01-30T01:35:49.171Z,0.00
2023-01-30T01:36:53.765Z,0.00
2023-01-30T01:37:49.216Z,0.00
2023-01-30T01:38:49.238Z,0.00
2023-01-30T01:39:49.261Z,0.00
2023-01-30T01:40:49.284Z,0.00
2023-01-30T01:41:49.308Z,0.00
2023-01-30T01:42:49.328Z,0.00
2023-01-30T01:43:49.353Z,0.00
2023-01-30T01:44:49.374Z,0.00
2023-01-30T01:45:49.449Z,0.00
2023-01-30T01:46:49.420Z,0.00
2023-01-30T01:47:49.446Z,0.00
2023-01-30T01:48:49.465Z,0.00
2023-01-30T01:49:49.497Z,0.00
2023-01-30T01:50:49.513Z,0.00
2023-01-30T01:51:49.539Z,0.00
2023-01-30T01:52:52.040Z,0.00
2023-01-30T01:53:49.579Z,0.00
2023-01-30T01:54:49.617Z,0.00
2023-01-30T01:55:49.627Z,0.00
2023-01-30T01:56:49.654Z,0.00
2023-01-30T01:57:49.670Z,0.00
2023-01-30T01:58:49.709Z,0.00
2023-01-30T01:59:49.715Z,0.00
2023-01-30T02:00:49.777Z,0.00
2023-01-30T02:01:49.761Z,0.00
2023-01-30T02:02:49.795Z,0.00
2023-01-30T02:03:49.819Z,0.00
2023-01-30T02:04:49.831Z,0.00
2023-01-30T02:05:49.916Z,0.00
2023-01-30T02:06:49.876Z,0.00
2023-01-30T02:07:49.905Z,0.00
2023-01-30T02:08:49.920Z,0.00
2023-01-30T02:09:49.955Z,0.00
2023-01-30T02:10:49.973Z,0.00
2023-01-30T02:11:49.987Z,0.00
2023-01-30T02:12:50.013Z,0.00
2023-01-30T02:13:50.035Z,0.00
2023-01-30T02:14:50.062Z,0.00
2023-01-30T02:15:50.078Z,0.00
2023-01-30T02:16:50.205Z,0.00
2023-01-30T02:17:50.180Z,0.00
2023-01-30T02:18:50.149Z,0.00
2023-01-30T02:19:50.174Z,0.00
2023-01-30T02:20:50.197Z,0.00
2023-01-30T02:21:50.216Z,0.00
2023-01-30T02:22:50.248Z,0.00
2023-01-30T02:23:50.261Z,0.00
2023-01-30T02:24:50.285Z,0.00
2023-01-30T02:25:50.309Z,0.00
2023-01-30T02:26:50.329Z,0.00
2023-01-30T02:27:50.351Z,0.00
2023-01-30T02:28:50.376Z,0.00
2023-01-30T02:29:50.414Z,0.00
2023-01-30T02:30:50.515Z,0.00
2023-01-30T02:31:50.441Z,0.00
2023-01-30T02:32:50.467Z,0.00
2023-01-30T02:33:50.489Z,0.00
2023-01-30T02:34:50.519Z,0.00
2023-01-30T02:35:50.535Z,0.00
2023-01-30T02:36:50.570Z,0.00
2023-01-30T02:37:50.581Z,0.00
2023-01-30T02:38:50.605Z,0.00
2023-01-30T02:39:50.624Z,0.00
2023-01-30T02:40:50.648Z,0.00
2023-01-30T02:41:50.686Z,0.00
2023-01-30T02:42:50.700Z,0.00
2023-01-30T02:43:50.715Z,0.00
2023-01-30T02:44:50.757Z,0.00
2023-01-30T02:45:50.802Z,0.00
2023-01-30T02:46:50.786Z,0.00
2023-01-30T02:47:50.808Z,0.00
2023-01-30T02:48:50.834Z,0.00
2023-01-30T02:49:50.856Z,0.00
2023-01-30T02:50:50.886Z,0.00
2023-01-30T02:51:50.899Z,0.00
2023-01-30T02:52:50.929Z,0.00
2023-01-30T02:53:50.948Z,0.00
2023-01-30T02:54:50.967Z,0.00
2023-01-30T02:55:50.996Z,0.00
2023-01-30T02:56:51.018Z,0.00
2023-01-30T02:57:51.039Z,0.00
2023-01-30T02:58:51.058Z,0.00
2023-01-30T02:59:51.080Z,0.00
2023-01-30T03:00:51.112Z,0.00
2023-01-30T03:01:51.128Z,0.00
2023-01-30T03:02:51.208Z,0.00
2023-01-30T03:03:51.172Z,0.00
2023-01-30T03:04:51.196Z,0.00
2023-01-30T03:05:51.215Z,0.00
2023-01-30T03:06:51.247Z,0.00
2023-01-30T03:07:51.260Z,0.00
2023-01-30T03:08:51.291Z,0.00
2023-01-30T03:09:51.307Z,0.00
2023-01-30T03:10:51.330Z,0.00
2023-01-30T03:11:51.354Z,0.00
2023-01-30T03:12:51.378Z,0.00
2023-01-30T03:13:51.398Z,0.00
2023-01-30T03:14:51.421Z,0.00
2023-01-30T03:15:51.486Z,0.00
2023-01-30T03:16:51.468Z,0.00
2023-01-30T03:17:51.488Z,0.00
2023-01-30T03:18:51.511Z,0.00
2023-01-30T03:19:51.533Z,0.00
2023-01-30T03:20:51.557Z,0.00
2023-01-30T03:21:51.578Z,0.00
2023-01-30T03:22:51.602Z,0.00
2023-01-30T03:23:51.623Z,0.00
2023-01-30T03:24:51.653Z,0.00
2023-01-30T03:25:51.672Z,0.00
2023-01-30T03:26:51.702Z,0.00
2023-01-30T03:27:51.737Z,0.00
2023-01-30T03:28:51.748Z,0.00
2023-01-30T03:29:51.760Z,0.00
2023-01-30T03:30:51.923Z,0.00
2023-01-30T03:31:51.837Z,0.00
2023-01-30T03:32:51.831Z,0.00
2023-01-30T03:33:51.852Z,0.00
2023-01-30T03:34:51.874Z,0.00
2023-01-30T03:35:51.900Z,0.00
2023-01-30T03:36:51.924Z,0.00
2023-01-30T03:37:51.948Z,0.00
2023-01-30T03:38:51.969Z,0.00
2023-01-30T03:39:51.990Z,0.00
2023-01-30T03:40:52.012Z,0.00
2023-01-30T03:41:52.036Z,0.00
2023-01-30T03:42:52.055Z,0.00
2023-01-30T03:43:52.077Z,0.00
2023-01-30T03:44:52.119Z,0.00
2023-01-30T03:45:52.159Z,0.00
2023-01-30T03:46:52.152Z,0.00
2023-01-30T03:47:52.171Z,0.00
2023-01-30T03:48:52.192Z,0.00
2023-01-30T03:49:52.214Z,0.00
2023-01-30T03:50:52.236Z,0.00
2023-01-30T03:51:52.267Z,0.00
2023-01-30T03:52:52.285Z,0.00
2023-01-30T03:53:52.308Z,0.00
2023-01-30T03:54:52.332Z,0.00
2023-01-30T03:55:52.350Z,0.00
2023-01-30T03:56:52.374Z,0.00
2023-01-30T03:57:52.397Z,0.00
2023-01-30T03:58:52.425Z,0.00
2023-01-30T03:59:52.457Z,0.00
2023-01-30T04:00:52.513Z,0.00
2023-01-30T04:01:52.488Z,0.00
2023-01-30T04:02:52.511Z,0.00
2023-01-30T04:03:52.534Z,0.00
2023-01-30T04:04:52.558Z,0.00
2023-01-30T04:05:52.579Z,0.00
2023-01-30T04:06:52.605Z,0.00
2023-01-30T04:07:52.625Z,0.00
2023-01-30T04:08:52.649Z,0.00
2023-01-30T04:09:52.670Z,0.00
2023-01-30T04:10:52.695Z,0.00
2023-01-30T04:11:52.715Z,0.00
2023-01-30T04:12:52.738Z,0.00
2023-01-30T04:13:52.766Z,0.00
2023-01-30T04:14:52.988Z,0.00
2023-01-30T04:15:53.007Z,0.00
2023-01-30T04:16:52.927Z,0.00
2023-01-30T04:17:52.860Z,0.00
2023-01-30T04:18:52.883Z,0.00
2023-01-30T04:19:53.000Z,0.00
2023-01-30T04:20:52.923Z,0.00
2023-01-30T04:21:52.944Z,0.00
2023-01-30T04:22:52.969Z,0.00
2023-01-30T04:23:53.011Z,0.00
2023-01-30T04:24:53.017Z,0.00
2023-01-30T04:25:53.036Z,0.00
2023-01-30T04:26:53.070Z,0.00
2023-01-30T04:27:53.087Z,0.00
2023-01-30T04:28:53.115Z,0.00
2023-01-30T04:29:53.123Z,0.00
2023-01-30T04:30:53.176Z,0.00
2023-01-30T04:31:53.175Z,0.00
2023-01-30T04:32:53.225Z,0.00
2023-01-30T04:33:53.224Z,0.00
2023-01-30T04:34:53.264Z,0.00
2023-01-30T04:35:53.265Z,0.00
2023-01-30T04:36:53.294Z,0.00
2023-01-30T04:37:53.308Z,0.00
2023-01-30T04:38:53.335Z,0.00
2023-01-30T04:39:53.354Z,0.00
2023-01-30T04:40:53.381Z,0.00
2023-01-30T04:41:53.399Z,0.00
2023-01-30T04:42:53.426Z,0.00
2023-01-30T04:43:53.471Z,0.00
2023-01-30T04:44:53.504Z,0.00
2023-01-30T04:45:53.522Z,0.00
2023-01-30T04:46:53.518Z,0.00
2023-01-30T04:47:53.584Z,0.00
2023-01-30T04:48:53.584Z,0.00
2023-01-30T04:49:53.584Z,0.00
2023-01-30T04:50:53.610Z,0.00
2023-01-30T04:51:53.631Z,0.00
2023-01-30T04:52:53.657Z,0.00
2023-01-30T04:53:53.678Z,0.00
2023-01-30T04:54:53.698Z,0.00
2023-01-30T04:55:53.718Z,0.00
2023-01-30T04:56:53.745Z,0.00
2023-01-30T04:57:53.769Z,0.00
2023-01-30T04:58:53.797Z,0.00
2023-01-30T04:59:53.815Z,0.00
2023-01-30T05:00:53.972Z,0.00
2023-01-30T05:01:53.924Z,0.00
2023-01-30T05:02:53.885Z,0.00
2023-01-30T05:03:53.911Z,0.00
2023-01-30T05:04:53.952Z,0.00
2023-01-30T05:05:53.956Z,0.00
2023-01-30T05:06:53.975Z,0.00
2023-01-30T05:07:53.997Z,0.00
2023-01-30T05:08:54.038Z,0.00
2023-01-30T05:09:54.042Z,0.00
2023-01-30T05:10:54.067Z,0.00
2023-01-30T05:11:54.092Z,0.00
2023-01-30T05:12:54.116Z,0.00
2023-01-30T05:13:54.135Z,0.00
2023-01-30T05:14:54.158Z,0.00
2023-01-30T05:15:54.186Z,0.00
2023-01-30T05:16:54.265Z,0.00
2023-01-30T05:17:54.225Z,0.00
2023-01-30T05:18:54.252Z,0.00
2023-01-30T05:19:54.272Z,0.00
2023-01-30T05:20:54.320Z,0.00
2023-01-30T05:21:54.324Z,0.00
2023-01-30T05:22:54.357Z,0.00
2023-01-30T05:23:54.363Z,0.00
2023-01-30T05:24:54.392Z,0.00
2023-01-30T05:25:54.412Z,0.00
2023-01-30T05:26:54.435Z,0.00
2023-01-30T05:27:54.465Z,0.00
2023-01-30T05:28:54.506Z,0.00
2023-01-30T05:29:54.502Z,0.00
2023-01-30T05:30:54.601Z,0.00
2023-01-30T05:31:54.551Z,0.00
2023-01-30T05:32:54.575Z,0.00
2023-01-30T05:33:54.593Z,0.00
2023-01-30T05:34:54.616Z,0.00
2023-01-30T05:35:54.642Z,0.00
2023-01-30T05:36:54.685Z,0.00
2023-01-30T05:37:54.688Z,0.00
2023-01-30T05:38:54.708Z,0.00
2023-01-30T05:39:54.729Z,0.00
2023-01-30T05:40:54.754Z,0.00
2023-01-30T05:41:54.789Z,0.00
2023-01-30T05:42:54.800Z,0.00
2023-01-30T05:43:54.823Z,0.00
2023-01-30T05:44:54.852Z,0.00
2023-01-30T05:45:54.869Z,0.00
2023-01-30T05:46:54.945Z,0.00
2023-01-30T05:47:58.560Z,0.00
2023-01-30T05:48:54.938Z,0.00
2023-01-30T05:49:54.965Z,0.00
2023-01-30T05:50:54.982Z,0.00
2023-01-30T05:51:55.005Z,0.00
2023-01-30T05:52:55.047Z,0.00
2023-01-30T05:53:55.056Z,0.00
2023-01-30T05:54:55.074Z,0.00
2023-01-30T05:55:55.096Z,0.00
2023-01-30T05:56:55.118Z,0.00
2023-01-30T05:57:55.149Z,0.00
2023-01-30T05:58:55.204Z,0.00
2023-01-30T05:59:55.185Z,0.00
2023-01-30T06:00:55.211Z,0.00
2023-01-30T06:01:55.233Z,0.00
2023-01-30T06:02:55.297Z,0.00
2023-01-30T06:03:55.345Z,0.00
2023-01-30T06:04:55.304Z,0.00
2023-01-30T06:05:55.323Z,0.00
2023-01-30T06:06:55.355Z,0.00
2023-01-30T06:07:55.371Z,0.00
2023-01-30T06:08:55.418Z,0.00
2023-01-30T06:09:55.415Z,0.00
2023-01-30T06:10:55.438Z,0.00
2023-01-30T06:11:55.459Z,0.00
2023-01-30T06:12:55.487Z,0.00
2023-01-30T06:13:55.506Z,0.00
2023-01-30T06:14:55.529Z,0.00
2023-01-30T06:15:55.607Z,0.00
2023-01-30T06:16:55.636Z,0.00
2023-01-30T06:17:55.602Z,0.00
2023-01-30T06:18:55.637Z,0.00
2023-01-30T06:19:55.641Z,0.00
2023-01-30T06:20:55.664Z,0.00
2023-01-30T06:21:55.691Z,0.00
2023-01-30T06:22:55.707Z,0.00
2023-01-30T06:23:55.741Z,0.00
2023-01-30T06:24:55.775Z,0.00
2023-01-30T06:25:55.786Z,0.00
2023-01-30T06:26:55.800Z,0.00
2023-01-30T06:27:55.829Z,0.00
2023-01-30T06:28:55.847Z,0.00
2023-01-30T06:29:55.869Z,0.00
2023-01-30T06:30:56.039Z,0.00
2023-01-30T06:31:55.914Z,0.00
2023-01-30T06:32:55.937Z,0.00
2023-01-30T06:33:55.962Z,0.00
2023-01-30T06:34:56.181Z,0.00
2023-01-30T06:35:56.008Z,0.00
2023-01-30T06:36:56.031Z,0.00
2023-01-30T06:37:56.052Z,0.00
2023-01-30T06:38:56.071Z,0.00
2023-01-30T06:39:56.102Z,0.00
2023-01-30T06:40:56.141Z,0.00
2023-01-30T06:41:56.158Z,0.00
2023-01-30T06:42:56.170Z,0.00
2023-01-30T06:43:56.187Z,0.00
2023-01-30T06:44:56.219Z,0.00
2023-01-30T06:45:56.261Z,0.00
2023-01-30T06:46:56.255Z,0.00
2023-01-30T06:47:56.278Z,0.00
2023-01-30T06:48:56.300Z,0.00
2023-01-30T06:49:56.325Z,0.00
2023-01-30T06:50:56.343Z,4.00
2023-01-30T06:51:56.369Z,4.00
2023-01-30T06:52:56.395Z,4.00
2023-01-30T06:53:56.418Z,4.00
2023-01-30T06:54:56.436Z,4.00
2023-01-30T06:55:56.463Z,4.00
2023-01-30T06:56:56.502Z,4.00
2023-01-30T06:57:56.507Z,8.00
2023-01-30T06:58:56.529Z,4.00
2023-01-30T06:59:56.552Z,4.00
2023-01-30T07:00:56.595Z,4.00
2023-01-30T07:01:56.705Z,8.00
2023-01-30T07:02:56.618Z,8.00
2023-01-30T07:03:56.746Z,8.00
2023-01-30T07:04:56.695Z,12.00
2023-01-30T07:05:56.689Z,12.00
2023-01-30T07:06:56.711Z,16.00
2023-01-30T07:07:56.735Z,16.00
2023-01-30T07:08:56.756Z,20.00
2023-01-30T07:10:07.741Z,20.00
2023-01-30T07:10:56.807Z,24.00
2023-01-30T07:11:56.827Z,24.00
2023-01-30T07:12:56.881Z,28.00
2023-01-30T07:13:56.879Z,32.00
2023-01-30T07:14:56.893Z,36.00
2023-01-30T07:15:56.919Z,48.00
2023-01-30T07:16:56.963Z,56.00
2023-01-30T07:17:56.970Z,68.00
2023-01-30T07:18:56.991Z,84.00
2023-01-30T07:19:57.009Z,108.00
2023-01-30T07:20:57.034Z,116.00
2023-01-30T07:21:57.056Z,100.00
2023-01-30T07:22:57.076Z,84.00
2023-01-30T07:23:57.102Z,80.00
2023-01-30T07:24:57.128Z,76.00
2023-01-30T07:25:57.151Z,100.00
2023-01-30T07:26:57.170Z,96.00
2023-01-30T07:27:57.207Z,120.00
2023-01-30T07:28:57.238Z,112.00
2023-01-30T07:29:57.244Z,148.00
2023-01-30T07:30:57.306Z,160.00
2023-01-30T07:31:57.300Z,140.00
2023-01-30T07:32:57.308Z,172.00
2023-01-30T07:33:57.335Z,208.00
2023-01-30T07:34:57.355Z,144.00
2023-01-30T07:35:57.378Z,144.00
2023-01-30T07:36:57.404Z,112.00
2023-01-30T07:37:57.439Z,132.00
2023-01-30T07:38:57.447Z,136.00
2023-01-30T07:39:57.471Z,184.00
2023-01-30T07:40:57.515Z,200.00
2023-01-30T07:41:57.518Z,172.00
2023-01-30T07:42:57.539Z,172.00
2023-01-30T07:43:57.566Z,208.00
2023-01-30T07:44:57.663Z,292.00
2023-01-30T07:45:57.612Z,372.00
2023-01-30T07:46:57.658Z,440.00
2023-01-30T07:47:57.656Z,480.00
2023-01-30T07:48:59.770Z,628.00
2023-01-30T07:49:57.702Z,612.00
2023-01-30T07:50:57.729Z,340.00
2023-01-30T07:51:57.746Z,180.00
2023-01-30T07:52:57.773Z,180.00
2023-01-30T07:53:57.793Z,188.00
2023-01-30T07:54:59.482Z,240.00
2023-01-30T07:55:57.837Z,384.00
2023-01-30T07:56:57.860Z,340.00
2023-01-30T07:57:57.887Z,352.00
2023-01-30T07:58:57.904Z,424.00
2023-01-30T07:59:57.933Z,496.00
2023-01-30T08:00:58.018Z,644.00
2023-01-30T08:01:57.973Z,1016.00
2023-01-30T08:02:57.997Z,1044.00
2023-01-30T08:03:58.022Z,972.00
2023-01-30T08:04:58.070Z,580.00
2023-01-30T08:05:58.068Z,536.00
2023-01-30T08:06:58.094Z,708.00
2023-01-30T08:07:58.126Z,884.00
2023-01-30T08:08:58.148Z,960.00
2023-01-30T08:09:58.159Z,1056.00
2023-01-30T08:10:58.182Z,1224.00
2023-01-30T08:11:58.207Z,1280.00
2023-01-30T08:12:58.255Z,1048.00
2023-01-30T08:13:58.252Z,752.00
2023-01-30T08:14:58.272Z,724.00
2023-01-30T08:15:58.309Z,844.00
2023-01-30T08:16:58.341Z,976.00
2023-01-30T08:17:58.371Z,1064.00
2023-01-30T08:18:58.368Z,964.00
2023-01-30T08:19:58.408Z,996.00
2023-01-30T08:20:58.437Z,796.00
2023-01-30T08:21:58.436Z,980.00
2023-01-30T08:22:58.477Z,772.00
2023-01-30T08:24:00.279Z,540.00
2023-01-30T08:24:58.504Z,548.00
2023-01-30T08:25:58.532Z,308.00
2023-01-30T08:26:58.556Z,400.00
2023-01-30T08:27:58.578Z,388.00
2023-01-30T08:28:58.596Z,332.00
2023-01-30T08:29:58.621Z,392.00
2023-01-30T08:30:58.777Z,256.00
2023-01-30T08:31:58.670Z,336.00
2023-01-30T08:32:58.719Z,456.00
2023-01-30T08:33:58.716Z,500.00
2023-01-30T08:34:58.735Z,552.00
2023-01-30T08:35:58.770Z,772.00
2023-01-30T08:36:58.781Z,1052.00
2023-01-30T08:37:58.806Z,1152.00
2023-01-30T08:38:58.827Z,1536.00
2023-01-30T08:39:58.874Z,1916.00
2023-01-30T08:40:58.874Z,2220.00
2023-01-30T08:41:58.900Z,1812.00
2023-01-30T08:42:58.922Z,1164.00
2023-01-30T08:43:58.951Z,1068.00
2023-01-30T08:44:58.970Z,1364.00
2023-01-30T08:45:58.997Z,1708.00
2023-01-30T08:46:59.029Z,1764.00
2023-01-30T08:47:59.042Z,1796.00
2023-01-30T08:48:59.079Z,2040.00
2023-01-30T08:49:59.087Z,2488.00
2023-01-30T08:50:59.110Z,3000.00
2023-01-30T08:51:59.136Z,2456.00
2023-01-30T08:52:59.155Z,2424.00
2023-01-30T08:53:59.179Z,2568.00
2023-01-30T08:54:59.208Z,3324.00
2023-01-30T08:55:59.229Z,3164.00
2023-01-30T08:56:59.250Z,3112.00
2023-01-30T08:57:59.274Z,3300.00
2023-01-30T08:58:59.294Z,3284.00
2023-01-30T08:59:59.321Z,3212.00
2023-01-30T09:00:59.394Z,3664.00
2023-01-30T09:01:59.366Z,3200.00
2023-01-30T09:02:59.390Z,3368.00
2023-01-30T09:03:59.418Z,2984.00
2023-01-30T09:04:59.456Z,2884.00
2023-01-30T09:05:59.468Z,3204.00
2023-01-30T09:06:59.482Z,3644.00
2023-01-30T09:07:59.510Z,3428.00
2023-01-30T09:08:59.538Z,3544.00
2023-01-30T09:09:59.553Z,3752.00
2023-01-30T09:10:59.574Z,4592.00
2023-01-30T09:11:59.601Z,6076.00
2023-01-30T09:12:59.625Z,6260.00
2023-01-30T09:13:59.672Z,4408.00
2023-01-30T09:14:59.671Z,3568.00
2023-01-30T09:15:59.693Z,3388.00
2023-01-30T09:16:59.809Z,3252.00
2023-01-30T09:17:59.739Z,2756.00
2023-01-30T09:18:59.766Z,3412.00
2023-01-30T09:19:59.791Z,3636.00
2023-01-30T09:20:59.844Z,3392.00
2023-01-30T09:21:59.850Z,3796.00
2023-01-30T09:22:59.857Z,3572.00
2023-01-30T09:23:59.882Z,4584.00
2023-01-30T09:24:59.905Z,4848.00
2023-01-30T09:25:59.931Z,4612.00
2023-01-30T09:26:59.964Z,5220.00
2023-01-30T09:27:59.978Z,5676.00
2023-01-30T09:29:00.001Z,4596.00
2023-01-30T09:30:00.037Z,3808.00
2023-01-30T09:31:00.232Z,3560.00
2023-01-30T09:32:00.135Z,3992.00
2023-01-30T09:33:00.103Z,3948.00
2023-01-30T09:34:00.121Z,4796.00
2023-01-30T09:35:00.163Z,5352.00
2023-01-30T09:36:00.190Z,4296.00
2023-01-30T09:37:00.290Z,3836.00
2023-01-30T09:38:00.217Z,4432.00
2023-01-30T09:39:00.257Z,4008.00
2023-01-30T09:40:00.261Z,4024.00
2023-01-30T09:41:00.343Z,3636.00
2023-01-30T09:42:00.313Z,3564.00
2023-01-30T09:43:00.352Z,3680.00
2023-01-30T09:44:00.359Z,3944.00
2023-01-30T09:45:00.387Z,4392.00
2023-01-30T09:46:00.534Z,3840.00
2023-01-30T09:47:00.429Z,3720.00
2023-01-30T09:48:01.866Z,3344.00
2023-01-30T09:49:00.478Z,3564.00
2023-01-30T09:50:00.510Z,4044.00
2023-01-30T09:51:00.627Z,3988.00
2023-01-30T09:52:00.554Z,4084.00
2023-01-30T09:53:00.600Z,3792.00
2023-01-30T09:54:01.206Z,3708.00
2023-01-30T09:55:00.629Z,3484.00
2023-01-30T09:56:00.653Z,3716.00
2023-01-30T09:57:00.671Z,3684.00
2023-01-30T09:58:00.704Z,3536.00
2023-01-30T09:59:00.718Z,3128.00
2023-01-30T10:00:00.745Z,3080.00
2023-01-30T10:01:00.777Z,3064.00
2023-01-30T10:02:00.791Z,3016.00
2023-01-30T10:03:00.816Z,3320.00
2023-01-30T10:04:00.860Z,3636.00
2023-01-30T10:05:02.264Z,3512.00
2023-01-30T10:06:00.890Z,3376.00
2023-01-30T10:07:00.911Z,3516.00
2023-01-30T10:08:00.973Z,3452.00
2023-01-30T10:09:00.983Z,3356.00
2023-01-30T10:10:00.984Z,3536.00
2023-01-30T10:11:10.351Z,3628.00
2023-01-30T10:12:01.030Z,3732.00
2023-01-30T10:13:01.053Z,3776.00
2023-01-30T10:14:01.075Z,3180.00
2023-01-30T10:15:01.101Z,3524.00
2023-01-30T10:16:01.208Z,3408.00
2023-01-30T10:17:01.153Z,3892.00
2023-01-30T10:18:01.176Z,4252.00
2023-01-30T10:19:01.199Z,4760.00
2023-01-30T10:20:01.222Z,4092.00
2023-01-30T10:21:01.260Z,3900.00
2023-01-30T10:22:01.271Z,4460.00
2023-01-30T10:23:01.315Z,4356.00
2023-01-30T10:24:01.333Z,4536.00
2023-01-30T10:25:01.361Z,5216.00
2023-01-30T10:26:01.372Z,6240.00
2023-01-30T10:27:03.651Z,6780.00
2023-01-30T10:28:01.416Z,5388.00
2023-01-30T10:29:07.403Z,3864.00
2023-01-30T10:30:01.474Z,2804.00
2023-01-30T10:31:01.714Z,3092.00
2023-01-30T10:32:01.512Z,3612.00
2023-01-30T10:33:01.540Z,3288.00
2023-01-30T10:34:01.592Z,2992.00
2023-01-30T10:35:01.586Z,3192.00
2023-01-30T10:36:01.610Z,2664.00
2023-01-30T10:37:01.640Z,3388.00
2023-01-30T10:38:01.662Z,3824.00
2023-01-30T10:39:01.691Z,2472.00
2023-01-30T10:40:01.712Z,2404.00
2023-01-30T10:41:01.790Z,2592.00
2023-01-30T10:42:01.755Z,3440.00
2023-01-30T10:43:01.777Z,4096.00
2023-01-30T10:44:01.801Z,3496.00
2023-01-30T10:45:01.828Z,3304.00
2023-01-30T10:46:01.852Z,4168.00
2023-01-30T10:47:01.875Z,3816.00
2023-01-30T10:48:01.903Z,4672.00
2023-01-30T10:49:01.931Z,5216.00
2023-01-30T10:50:01.947Z,5304.00
2023-01-30T10:51:01.972Z,5012.00
2023-01-30T10:52:02.006Z,5104.00
2023-01-30T10:53:02.021Z,4512.00
2023-01-30T10:54:02.069Z,4164.00
2023-01-30T10:55:02.074Z,5140.00
2023-01-30T10:56:02.093Z,5160.00
2023-01-30T10:57:02.141Z,4872.00
2023-01-30T10:58:02.141Z,5132.00
2023-01-30T10:59:02.165Z,4492.00
2023-01-30T11:00:02.242Z,4072.00
2023-01-30T11:01:02.223Z,4012.00
2023-01-30T11:02:02.284Z,3372.00
2023-01-30T11:03:02.368Z,2776.00
2023-01-30T11:04:02.285Z,3140.00
2023-01-30T11:05:02.319Z,2976.00
2023-01-30T11:06:02.344Z,3016.00
2023-01-30T11:07:02.404Z,3316.00
2023-01-30T11:08:02.389Z,3780.00
2023-01-30T11:09:02.409Z,4636.00
2023-01-30T11:10:02.434Z,5040.00
2023-01-30T11:11:02.461Z,4712.00
2023-01-30T11:12:02.482Z,4432.00
2023-01-30T11:13:02.542Z,3592.00
2023-01-30T11:14:02.532Z,3072.00
2023-01-30T11:15:02.563Z,3232.00
2023-01-30T11:16:02.642Z,3520.00
2023-01-30T11:17:02.611Z,3364.00
2023-01-30T11:18:22.821Z,2964.00
2023-01-30T11:19:20.814Z,2744.00
2023-01-30T11:20:02.676Z,2584.00
2023-01-30T11:21:02.706Z,2572.00
2023-01-30T11:22:02.745Z,2984.00
2023-01-30T11:23:02.753Z,3064.00
2023-01-30T11:24:02.776Z,2728.00
2023-01-30T11:25:03.003Z,2808.00
2023-01-30T11:26:11.324Z,2848.00
2023-01-30T11:27:02.892Z,2488.00
2023-01-30T11:28:02.875Z,2452.00
2023-01-30T11:29:02.918Z,2416.00
2023-01-30T11:30:02.974Z,2328.00
2023-01-30T11:31:03.061Z,2140.00
2023-01-30T11:32:03.173Z,1848.00
2023-01-30T11:33:03.000Z,1508.00
2023-01-30T11:34:03.022Z,1644.00
2023-01-30T11:35:03.049Z,1768.00
2023-01-30T11:36:04.499Z,1480.00
2023-01-30T11:37:03.096Z,1444.00
2023-01-30T11:38:03.121Z,1628.00
2023-01-30T11:39:03.140Z,1596.00
2023-01-30T11:40:03.171Z,1784.00
2023-01-30T11:41:03.206Z,2128.00
2023-01-30T11:42:03.220Z,2052.00
2023-01-30T11:43:03.257Z,1836.00
2023-01-30T11:44:03.282Z,1680.00
2023-01-30T11:45:16.666Z,1744.00
2023-01-30T11:46:03.369Z,2108.00
2023-01-30T11:47:03.347Z,2620.00
2023-01-30T11:48:04.799Z,3504.00
2023-01-30T11:49:11.124Z,3900.00
2023-01-30T11:50:16.867Z,3764.00
2023-01-30T11:51:03.440Z,3944.00
2023-01-30T11:52:03.475Z,4284.00
2023-01-30T11:53:03.488Z,4464.00
2023-01-30T11:54:03.506Z,4344.00
2023-01-30T11:55:03.533Z,4892.00
2023-01-30T11:56:07.976Z,5340.00
2023-01-30T11:57:03.582Z,4176.00
2023-01-30T11:58:03.611Z,3452.00
2023-01-30T11:59:03.634Z,3560.00
2023-01-30T12:00:03.654Z,3340.00
2023-01-30T12:01:03.703Z,3148.00
2023-01-30T12:02:03.881Z,2888.00
2023-01-30T12:03:03.819Z,2932.00
2023-01-30T12:04:03.755Z,3284.00
2023-01-30T12:05:03.779Z,3120.00
2023-01-30T12:06:03.845Z,2448.00
2023-01-30T12:07:03.828Z,1964.00
2023-01-30T12:08:03.850Z,2156.00
2023-01-30T12:09:03.880Z,2608.00
2023-01-30T12:10:03.898Z,3188.00
2023-01-30T12:11:03.926Z,3216.00
2023-01-30T12:12:03.953Z,2668.00
2023-01-30T12:13:03.975Z,2340.00
2023-01-30T12:14:04.006Z,2688.00
2023-01-30T12:15:04.025Z,2916.00
2023-01-30T12:16:04.118Z,2944.00
2023-01-30T12:17:04.095Z,3120.00
2023-01-30T12:18:04.098Z,3232.00
2023-01-30T12:19:04.122Z,3312.00
2023-01-30T12:20:04.151Z,3264.00
2023-01-30T12:21:04.181Z,3208.00
2023-01-30T12:22:04.194Z,2920.00
2023-01-30T12:23:04.229Z,2580.00
2023-01-30T12:24:04.247Z,2200.00
2023-01-30T12:25:04.273Z,1836.00
2023-01-30T12:26:04.294Z,1624.00
2023-01-30T12:27:04.319Z,1544.00
2023-01-30T12:28:04.342Z,1676.00
2023-01-30T12:29:04.372Z,1616.00
2023-01-30T12:30:04.392Z,1624.00
2023-01-30T12:31:04.619Z,1900.00
2023-01-30T12:32:04.438Z,1860.00
2023-01-30T12:33:04.491Z,2084.00
2023-01-30T12:34:04.524Z,2308.00
2023-01-30T12:35:04.515Z,2432.00
2023-01-30T12:36:04.545Z,2544.00
2023-01-30T12:37:04.565Z,2820.00
2023-01-30T12:38:04.586Z,2764.00
2023-01-30T12:39:04.612Z,2664.00
2023-01-30T12:40:04.635Z,2916.00
2023-01-30T12:41:04.661Z,2716.00
2023-01-30T12:42:04.685Z,2664.00
2023-01-30T12:43:04.711Z,2832.00
2023-01-30T12:44:04.746Z,2788.00
2023-01-30T12:45:04.754Z,2784.00
2023-01-30T12:46:04.837Z,2712.00
2023-01-30T12:47:04.806Z,2692.00
2023-01-30T12:48:04.834Z,2856.00